sensor_id;sensor_type;location;lat;lon;timestamp;P1;durP1;ratioP1;P2;durP2;ratioP2
1479;SDS011;732;51.698;4.886;2024-02-15T00:02:09;31.90;;;20.27;;
1479;SDS011;732;51.698;4.886;2024-02-15T00:04:37;29.07;;;17.83;;
1479;SDS011;732;51.698;4.886;2024-02-15T00:07:06;31.57;;;18.47;;
1479;SDS011;732;51.698;4.886;2024-02-15T00:09:35;29.80;;;18.57;;
1479;SDS011;732;51.698;4.886;2024-02-15T00:12:04;27.00;;;17.40;;
1479;SDS011;732;51.698;4.886;2024-02-15T00:14:34;27.70;;;17.50;;
1479;SDS011;732;51.698;4.886;2024-02-15T00:17:05;29.73;;;18.17;;
1479;SDS011;732;51.698;4.886;2024-02-15T00:19:35;28.50;;;16.87;;
1479;SDS011;732;51.698;4.886;2024-02-15T00:22:05;30.40;;;17.53;;
1479;SDS011;732;51.698;4.886;2024-02-15T00:24:36;27.83;;;17.17;;
1479;SDS011;732;51.698;4.886;2024-02-15T00:27:05;27.57;;;15.80;;
1479;SDS011;732;51.698;4.886;2024-02-15T00:29:34;29.63;;;16.33;;
1479;SDS011;732;51.698;4.886;2024-02-15T00:32:02;27.47;;;15.10;;
1479;SDS011;732;51.698;4.886;2024-02-15T00:34:32;30.97;;;16.50;;
1479;SDS011;732;51.698;4.886;2024-02-15T00:37:03;23.73;;;15.80;;
1479;SDS011;732;51.698;4.886;2024-02-15T00:39:32;21.83;;;14.70;;
1479;SDS011;732;51.698;4.886;2024-02-15T00:42:00;29.33;;;15.13;;
1479;SDS011;732;51.698;4.886;2024-02-15T00:44:30;21.03;;;14.60;;
1479;SDS011;732;51.698;4.886;2024-02-15T00:46:58;24.23;;;14.33;;
1479;SDS011;732;51.698;4.886;2024-02-15T00:49:27;25.33;;;15.27;;
1479;SDS011;732;51.698;4.886;2024-02-15T00:51:57;28.67;;;13.83;;
1479;SDS011;732;51.698;4.886;2024-02-15T00:54:25;23.37;;;15.00;;
1479;SDS011;732;51.698;4.886;2024-02-15T00:56:54;21.27;;;13.60;;
1479;SDS011;732;51.698;4.886;2024-02-15T00:59:22;29.67;;;14.30;;
1479;SDS011;732;51.698;4.886;2024-02-15T01:01:51;28.40;;;13.40;;
1479;SDS011;732;51.698;4.886;2024-02-15T01:04:19;25.03;;;14.50;;
1479;SDS011;732;51.698;4.886;2024-02-15T01:06:51;25.90;;;13.97;;
1479;SDS011;732;51.698;4.886;2024-02-15T01:09:22;20.63;;;12.53;;
1479;SDS011;732;51.698;4.886;2024-02-15T01:11:50;25.13;;;14.27;;
1479;SDS011;732;51.698;4.886;2024-02-15T01:14:19;26.70;;;14.50;;
1479;SDS011;732;51.698;4.886;2024-02-15T01:16:47;26.10;;;13.77;;
1479;SDS011;732;51.698;4.886;2024-02-15T01:19:16;23.17;;;13.17;;
1479;SDS011;732;51.698;4.886;2024-02-15T01:21:45;24.87;;;14.07;;
1479;SDS011;732;51.698;4.886;2024-02-15T01:24:13;20.07;;;12.27;;
1479;SDS011;732;51.698;4.886;2024-02-15T01:26:43;23.47;;;13.03;;
1479;SDS011;732;51.698;4.886;2024-02-15T01:29:14;30.73;;;13.33;;
1479;SDS011;732;51.698;4.886;2024-02-15T01:31:43;23.77;;;12.60;;
1479;SDS011;732;51.698;4.886;2024-02-15T01:34:11;21.20;;;12.73;;
1479;SDS011;732;51.698;4.886;2024-02-15T01:36:40;27.63;;;13.40;;
1479;SDS011;732;51.698;4.886;2024-02-15T01:39:09;22.50;;;12.40;;
1479;SDS011;732;51.698;4.886;2024-02-15T01:41:37;26.73;;;13.23;;
1479;SDS011;732;51.698;4.886;2024-02-15T01:44:07;25.17;;;13.37;;
1479;SDS011;732;51.698;4.886;2024-02-15T01:46:38;26.90;;;13.07;;
1479;SDS011;732;51.698;4.886;2024-02-15T01:49:06;26.93;;;12.77;;
1479;SDS011;732;51.698;4.886;2024-02-15T01:51:36;25.90;;;13.10;;
1479;SDS011;732;51.698;4.886;2024-02-15T01:54:04;28.80;;;14.07;;
1479;SDS011;732;51.698;4.886;2024-02-15T01:56:34;32.73;;;13.93;;
1479;SDS011;732;51.698;4.886;2024-02-15T01:59:04;33.37;;;14.23;;
1479;SDS011;732;51.698;4.886;2024-02-15T02:01:37;25.53;;;14.03;;
1479;SDS011;732;51.698;4.886;2024-02-15T02:04:07;26.83;;;14.07;;
1479;SDS011;732;51.698;4.886;2024-02-15T02:06:36;24.27;;;13.30;;
1479;SDS011;732;51.698;4.886;2024-02-15T02:09:07;30.37;;;13.33;;
1479;SDS011;732;51.698;4.886;2024-02-15T02:11:41;21.70;;;12.80;;
1479;SDS011;732;51.698;4.886;2024-02-15T02:14:12;27.20;;;13.20;;
1479;SDS011;732;51.698;4.886;2024-02-15T02:16:43;25.30;;;13.90;;
1479;SDS011;732;51.698;4.886;2024-02-15T02:19:13;23.20;;;12.60;;
1479;SDS011;732;51.698;4.886;2024-02-15T02:21:44;27.13;;;12.87;;
1479;SDS011;732;51.698;4.886;2024-02-15T02:24:19;28.23;;;12.23;;
1479;SDS011;732;51.698;4.886;2024-02-15T02:26:51;23.57;;;11.63;;
1479;SDS011;732;51.698;4.886;2024-02-15T02:29:21;23.90;;;12.20;;
1479;SDS011;732;51.698;4.886;2024-02-15T02:31:49;23.50;;;11.23;;
1479;SDS011;732;51.698;4.886;2024-02-15T02:34:17;28.10;;;11.43;;
1479;SDS011;732;51.698;4.886;2024-02-15T02:36:46;19.93;;;11.20;;
1479;SDS011;732;51.698;4.886;2024-02-15T02:39:16;26.93;;;10.40;;
1479;SDS011;732;51.698;4.886;2024-02-15T02:41:45;18.90;;;10.97;;
1479;SDS011;732;51.698;4.886;2024-02-15T02:44:15;19.40;;;10.07;;
1479;SDS011;732;51.698;4.886;2024-02-15T02:46:43;22.17;;;10.60;;
1479;SDS011;732;51.698;4.886;2024-02-15T02:49:12;20.03;;;10.20;;
1479;SDS011;732;51.698;4.886;2024-02-15T02:51:41;19.30;;;9.20;;
1479;SDS011;732;51.698;4.886;2024-02-15T02:54:12;19.67;;;9.37;;
1479;SDS011;732;51.698;4.886;2024-02-15T02:56:41;27.70;;;9.77;;
1479;SDS011;732;51.698;4.886;2024-02-15T02:59:11;18.00;;;9.10;;
1479;SDS011;732;51.698;4.886;2024-02-15T03:01:41;22.47;;;10.40;;
1479;SDS011;732;51.698;4.886;2024-02-15T03:04:10;16.17;;;9.80;;
1479;SDS011;732;51.698;4.886;2024-02-15T03:06:43;18.20;;;9.83;;
1479;SDS011;732;51.698;4.886;2024-02-15T03:09:12;20.57;;;9.27;;
1479;SDS011;732;51.698;4.886;2024-02-15T03:11:41;29.17;;;9.67;;
1479;SDS011;732;51.698;4.886;2024-02-15T03:14:09;20.83;;;10.00;;
1479;SDS011;732;51.698;4.886;2024-02-15T03:16:39;21.57;;;10.20;;
1479;SDS011;732;51.698;4.886;2024-02-15T03:19:09;21.30;;;8.97;;
1479;SDS011;732;51.698;4.886;2024-02-15T03:21:40;25.40;;;10.30;;
1479;SDS011;732;51.698;4.886;2024-02-15T03:24:12;24.43;;;9.83;;
1479;SDS011;732;51.698;4.886;2024-02-15T03:26:41;23.40;;;9.53;;
1479;SDS011;732;51.698;4.886;2024-02-15T03:29:10;27.67;;;11.27;;
1479;SDS011;732;51.698;4.886;2024-02-15T03:31:38;26.80;;;10.00;;
1479;SDS011;732;51.698;4.886;2024-02-15T03:34:08;16.10;;;9.27;;
1479;SDS011;732;51.698;4.886;2024-02-15T03:36:37;28.30;;;9.63;;
1479;SDS011;732;51.698;4.886;2024-02-15T03:39:06;25.40;;;10.60;;
1479;SDS011;732;51.698;4.886;2024-02-15T03:41:35;25.53;;;9.70;;
1479;SDS011;732;51.698;4.886;2024-02-15T03:44:04;22.53;;;10.10;;
1479;SDS011;732;51.698;4.886;2024-02-15T03:46:32;16.17;;;9.20;;
1479;SDS011;732;51.698;4.886;2024-02-15T03:49:01;26.97;;;10.60;;
1479;SDS011;732;51.698;4.886;2024-02-15T03:51:32;21.40;;;9.83;;
1479;SDS011;732;51.698;4.886;2024-02-15T03:54:00;25.30;;;9.93;;
1479;SDS011;732;51.698;4.886;2024-02-15T03:56:30;22.33;;;9.23;;
1479;SDS011;732;51.698;4.886;2024-02-15T03:58:59;24.50;;;9.63;;
1479;SDS011;732;51.698;4.886;2024-02-15T04:01:31;22.77;;;8.93;;
1479;SDS011;732;51.698;4.886;2024-02-15T04:04:00;24.03;;;10.00;;
1479;SDS011;732;51.698;4.886;2024-02-15T04:06:29;22.63;;;9.90;;
1479;SDS011;732;51.698;4.886;2024-02-15T04:09:00;19.90;;;9.60;;
1479;SDS011;732;51.698;4.886;2024-02-15T04:11:29;22.67;;;10.23;;
1479;SDS011;732;51.698;4.886;2024-02-15T04:13:59;23.93;;;9.37;;
1479;SDS011;732;51.698;4.886;2024-02-15T04:16:28;23.03;;;9.57;;
1479;SDS011;732;51.698;4.886;2024-02-15T04:19:00;19.77;;;9.23;;
1479;SDS011;732;51.698;4.886;2024-02-15T04:21:32;19.37;;;10.07;;
1479;SDS011;732;51.698;4.886;2024-02-15T04:24:01;25.23;;;10.50;;
1479;SDS011;732;51.698;4.886;2024-02-15T04:26:30;25.67;;;10.00;;
1479;SDS011;732;51.698;4.886;2024-02-15T04:29:00;30.23;;;10.43;;
1479;SDS011;732;51.698;4.886;2024-02-15T04:31:32;26.70;;;10.90;;
1479;SDS011;732;51.698;4.886;2024-02-15T04:34:03;23.47;;;11.60;;
1479;SDS011;732;51.698;4.886;2024-02-15T04:36:33;28.03;;;11.80;;
1479;SDS011;732;51.698;4.886;2024-02-15T04:39:03;31.07;;;10.77;;
1479;SDS011;732;51.698;4.886;2024-02-15T04:41:31;24.43;;;11.50;;
1479;SDS011;732;51.698;4.886;2024-02-15T04:44:00;19.77;;;10.67;;
1479;SDS011;732;51.698;4.886;2024-02-15T04:46:30;24.97;;;10.97;;
1479;SDS011;732;51.698;4.886;2024-02-15T04:49:00;27.63;;;12.27;;
1479;SDS011;732;51.698;4.886;2024-02-15T04:51:29;25.30;;;11.17;;
1479;SDS011;732;51.698;4.886;2024-02-15T04:53:59;21.23;;;10.83;;
1479;SDS011;732;51.698;4.886;2024-02-15T04:56:28;25.60;;;11.13;;
1479;SDS011;732;51.698;4.886;2024-02-15T04:58:59;23.63;;;12.03;;
1479;SDS011;732;51.698;4.886;2024-02-15T05:01:28;21.00;;;10.50;;
1479;SDS011;732;51.698;4.886;2024-02-15T05:03:59;24.43;;;10.70;;
1479;SDS011;732;51.698;4.886;2024-02-15T05:06:36;26.77;;;10.27;;
1479;SDS011;732;51.698;4.886;2024-02-15T05:09:07;26.07;;;10.60;;
1479;SDS011;732;51.698;4.886;2024-02-15T05:11:37;27.00;;;12.10;;
1479;SDS011;732;51.698;4.886;2024-02-15T05:14:08;26.67;;;10.90;;
1479;SDS011;732;51.698;4.886;2024-02-15T05:16:37;22.57;;;11.47;;
1479;SDS011;732;51.698;4.886;2024-02-15T05:19:09;28.80;;;12.57;;
1479;SDS011;732;51.698;4.886;2024-02-15T05:21:39;24.80;;;11.40;;
1479;SDS011;732;51.698;4.886;2024-02-15T05:24:13;26.23;;;12.20;;
1479;SDS011;732;51.698;4.886;2024-02-15T05:26:43;27.93;;;12.57;;
1479;SDS011;732;51.698;4.886;2024-02-15T05:29:13;25.73;;;13.23;;
1479;SDS011;732;51.698;4.886;2024-02-15T05:31:43;21.50;;;13.50;;
1479;SDS011;732;51.698;4.886;2024-02-15T05:34:12;32.77;;;13.90;;
1479;SDS011;732;51.698;4.886;2024-02-15T05:36:41;33.90;;;15.33;;
1479;SDS011;732;51.698;4.886;2024-02-15T05:39:10;29.67;;;14.67;;
1479;SDS011;732;51.698;4.886;2024-02-15T05:41:42;26.33;;;15.10;;
1479;SDS011;732;51.698;4.886;2024-02-15T05:44:11;26.23;;;15.00;;
1479;SDS011;732;51.698;4.886;2024-02-15T05:46:45;30.93;;;14.80;;
1479;SDS011;732;51.698;4.886;2024-02-15T05:49:14;32.23;;;15.30;;
1479;SDS011;732;51.698;4.886;2024-02-15T05:51:46;24.67;;;15.60;;
1479;SDS011;732;51.698;4.886;2024-02-15T05:54:15;24.50;;;13.70;;
1479;SDS011;732;51.698;4.886;2024-02-15T05:56:46;26.07;;;14.57;;
1479;SDS011;732;51.698;4.886;2024-02-15T05:59:18;31.50;;;15.63;;
1479;SDS011;732;51.698;4.886;2024-02-15T06:01:47;28.50;;;14.77;;
1479;SDS011;732;51.698;4.886;2024-02-15T06:04:16;25.90;;;15.00;;
1479;SDS011;732;51.698;4.886;2024-02-15T06:06:45;32.23;;;15.77;;
1479;SDS011;732;51.698;4.886;2024-02-15T06:09:16;24.50;;;14.17;;
1479;SDS011;732;51.698;4.886;2024-02-15T06:11:50;30.67;;;15.77;;
1479;SDS011;732;51.698;4.886;2024-02-15T06:14:22;35.93;;;16.33;;
1479;SDS011;732;51.698;4.886;2024-02-15T06:16:50;29.23;;;14.77;;
1479;SDS011;732;51.698;4.886;2024-02-15T06:19:21;32.20;;;15.80;;
1479;SDS011;732;51.698;4.886;2024-02-15T06:21:51;28.70;;;15.00;;
1479;SDS011;732;51.698;4.886;2024-02-15T06:24:19;31.27;;;14.77;;
1479;SDS011;732;51.698;4.886;2024-02-15T06:26:49;30.60;;;14.73;;
1479;SDS011;732;51.698;4.886;2024-02-15T06:29:20;27.93;;;15.10;;
1479;SDS011;732;51.698;4.886;2024-02-15T06:32:06;25.50;;;13.43;;
1479;SDS011;732;51.698;4.886;2024-02-15T06:34:52;25.77;;;14.03;;
1479;SDS011;732;51.698;4.886;2024-02-15T06:37:38;28.73;;;14.73;;
1479;SDS011;732;51.698;4.886;2024-02-15T06:40:24;35.10;;;15.17;;
1479;SDS011;732;51.698;4.886;2024-02-15T06:42:54;29.37;;;15.33;;
1479;SDS011;732;51.698;4.886;2024-02-15T06:45:23;27.70;;;14.13;;
1479;SDS011;732;51.698;4.886;2024-02-15T06:47:53;31.37;;;14.60;;
1479;SDS011;732;51.698;4.886;2024-02-15T06:50:22;29.57;;;14.60;;
1479;SDS011;732;51.698;4.886;2024-02-15T06:52:53;29.30;;;15.27;;
1479;SDS011;732;51.698;4.886;2024-02-15T06:55:23;31.60;;;14.20;;
1479;SDS011;732;51.698;4.886;2024-02-15T06:57:52;29.00;;;15.10;;
1479;SDS011;732;51.698;4.886;2024-02-15T07:00:23;31.77;;;15.03;;
1479;SDS011;732;51.698;4.886;2024-02-15T07:02:51;31.33;;;14.30;;
1479;SDS011;732;51.698;4.886;2024-02-15T07:05:20;31.00;;;14.07;;
1479;SDS011;732;51.698;4.886;2024-02-15T07:07:50;34.77;;;14.93;;
1479;SDS011;732;51.698;4.886;2024-02-15T07:10:18;44.90;;;16.77;;
1479;SDS011;732;51.698;4.886;2024-02-15T07:12:47;32.70;;;16.03;;
1479;SDS011;732;51.698;4.886;2024-02-15T07:15:18;37.57;;;14.50;;
1479;SDS011;732;51.698;4.886;2024-02-15T07:17:47;32.43;;;14.47;;
1479;SDS011;732;51.698;4.886;2024-02-15T07:20:16;32.43;;;14.30;;
1479;SDS011;732;51.698;4.886;2024-02-15T07:22:44;24.53;;;11.53;;
1479;SDS011;732;51.698;4.886;2024-02-15T07:25:13;31.87;;;13.17;;
1479;SDS011;732;51.698;4.886;2024-02-15T07:27:42;23.70;;;11.50;;
1479;SDS011;732;51.698;4.886;2024-02-15T07:30:11;23.80;;;12.37;;
1479;SDS011;732;51.698;4.886;2024-02-15T07:32:42;24.53;;;10.67;;
1479;SDS011;732;51.698;4.886;2024-02-15T07:35:11;28.40;;;11.20;;
1479;SDS011;732;51.698;4.886;2024-02-15T07:37:53;24.97;;;10.20;;
1479;SDS011;732;51.698;4.886;2024-02-15T07:40:25;29.03;;;11.07;;
1479;SDS011;732;51.698;4.886;2024-02-15T07:42:56;26.97;;;11.20;;
1479;SDS011;732;51.698;4.886;2024-02-15T07:45:25;27.67;;;11.50;;
1479;SDS011;732;51.698;4.886;2024-02-15T07:47:57;23.40;;;10.30;;
1479;SDS011;732;51.698;4.886;2024-02-15T07:50:27;24.43;;;11.50;;
1479;SDS011;732;51.698;4.886;2024-02-15T07:52:56;23.10;;;11.20;;
1479;SDS011;732;51.698;4.886;2024-02-15T07:55:24;25.37;;;11.90;;
1479;SDS011;732;51.698;4.886;2024-02-15T07:57:53;25.33;;;12.10;;
1479;SDS011;732;51.698;4.886;2024-02-15T08:00:22;23.13;;;11.60;;
1479;SDS011;732;51.698;4.886;2024-02-15T08:02:53;18.77;;;10.70;;
1479;SDS011;732;51.698;4.886;2024-02-15T08:05:25;18.23;;;9.40;;
1479;SDS011;732;51.698;4.886;2024-02-15T08:07:53;20.83;;;11.00;;
1479;SDS011;732;51.698;4.886;2024-02-15T08:10:24;20.57;;;10.33;;
1479;SDS011;732;51.698;4.886;2024-02-15T08:12:55;25.67;;;11.97;;
1479;SDS011;732;51.698;4.886;2024-02-15T08:15:25;22.43;;;10.90;;
1479;SDS011;732;51.698;4.886;2024-02-15T08:17:55;23.23;;;11.20;;
1479;SDS011;732;51.698;4.886;2024-02-15T08:20:25;21.73;;;10.13;;
1479;SDS011;732;51.698;4.886;2024-02-15T08:22:58;22.20;;;10.40;;
1479;SDS011;732;51.698;4.886;2024-02-15T08:25:26;18.93;;;9.97;;
1479;SDS011;732;51.698;4.886;2024-02-15T08:27:55;20.60;;;10.47;;
1479;SDS011;732;51.698;4.886;2024-02-15T08:30:23;19.50;;;9.33;;
1479;SDS011;732;51.698;4.886;2024-02-15T08:32:54;20.50;;;10.30;;
1479;SDS011;732;51.698;4.886;2024-02-15T08:35:22;17.83;;;9.90;;
1479;SDS011;732;51.698;4.886;2024-02-15T08:37:53;15.13;;;9.73;;
1479;SDS011;732;51.698;4.886;2024-02-15T08:40:22;15.87;;;8.50;;
1479;SDS011;732;51.698;4.886;2024-02-15T08:42:52;17.03;;;8.43;;
1479;SDS011;732;51.698;4.886;2024-02-15T08:45:22;17.00;;;8.60;;
1479;SDS011;732;51.698;4.886;2024-02-15T08:47:51;24.13;;;9.50;;
1479;SDS011;732;51.698;4.886;2024-02-15T08:50:20;18.10;;;8.70;;
1479;SDS011;732;51.698;4.886;2024-02-15T08:52:50;17.23;;;8.03;;
1479;SDS011;732;51.698;4.886;2024-02-15T08:55:21;13.70;;;7.50;;
1479;SDS011;732;51.698;4.886;2024-02-15T08:57:53;13.07;;;7.00;;
1479;SDS011;732;51.698;4.886;2024-02-15T09:00:22;10.93;;;7.30;;
1479;SDS011;732;51.698;4.886;2024-02-15T09:02:53;10.90;;;6.60;;
1479;SDS011;732;51.698;4.886;2024-02-15T09:05:23;12.57;;;6.60;;
1479;SDS011;732;51.698;4.886;2024-02-15T09:07:54;10.50;;;5.50;;
1479;SDS011;732;51.698;4.886;2024-02-15T09:10:22;13.80;;;6.27;;
1479;SDS011;732;51.698;4.886;2024-02-15T09:12:51;15.63;;;5.97;;
1479;SDS011;732;51.698;4.886;2024-02-15T09:15:19;9.30;;;5.67;;
1479;SDS011;732;51.698;4.886;2024-02-15T09:17:49;12.13;;;5.37;;
1479;SDS011;732;51.698;4.886;2024-02-15T09:20:18;12.37;;;5.40;;
1479;SDS011;732;51.698;4.886;2024-02-15T09:22:47;10.03;;;5.07;;
1479;SDS011;732;51.698;4.886;2024-02-15T09:25:18;13.17;;;5.90;;
1479;SDS011;732;51.698;4.886;2024-02-15T09:27:49;15.20;;;4.80;;
1479;SDS011;732;51.698;4.886;2024-02-15T09:30:20;13.60;;;5.37;;
1479;SDS011;732;51.698;4.886;2024-02-15T09:32:51;11.23;;;5.00;;
1479;SDS011;732;51.698;4.886;2024-02-15T09:35:20;12.33;;;5.50;;
1479;SDS011;732;51.698;4.886;2024-02-15T09:37:50;12.73;;;5.00;;
1479;SDS011;732;51.698;4.886;2024-02-15T09:40:23;10.70;;;5.40;;
1479;SDS011;732;51.698;4.886;2024-02-15T09:42:53;14.23;;;4.57;;
1479;SDS011;732;51.698;4.886;2024-02-15T09:45:21;13.73;;;5.40;;
1479;SDS011;732;51.698;4.886;2024-02-15T09:47:51;12.90;;;5.33;;
1479;SDS011;732;51.698;4.886;2024-02-15T09:50:20;8.00;;;5.60;;
1479;SDS011;732;51.698;4.886;2024-02-15T09:52:52;11.17;;;5.20;;
1479;SDS011;732;51.698;4.886;2024-02-15T09:55:22;10.33;;;5.90;;
1479;SDS011;732;51.698;4.886;2024-02-15T09:57:52;10.20;;;6.23;;
1479;SDS011;732;51.698;4.886;2024-02-15T10:00:20;9.90;;;5.50;;
1479;SDS011;732;51.698;4.886;2024-02-15T10:02:50;12.27;;;6.10;;
1479;SDS011;732;51.698;4.886;2024-02-15T10:05:21;11.40;;;5.80;;
1479;SDS011;732;51.698;4.886;2024-02-15T10:07:50;13.33;;;6.30;;
1479;SDS011;732;51.698;4.886;2024-02-15T10:10:19;11.53;;;7.20;;
1479;SDS011;732;51.698;4.886;2024-02-15T10:12:51;17.47;;;7.03;;
1479;SDS011;732;51.698;4.886;2024-02-15T10:15:27;11.30;;;7.60;;
1479;SDS011;732;51.698;4.886;2024-02-15T10:18:00;18.83;;;8.70;;
1479;SDS011;732;51.698;4.886;2024-02-15T10:20:30;16.87;;;9.07;;
1479;SDS011;732;51.698;4.886;2024-02-15T10:23:10;14.00;;;7.90;;
1479;SDS011;732;51.698;4.886;2024-02-15T10:25:40;12.87;;;7.83;;
1479;SDS011;732;51.698;4.886;2024-02-15T10:28:10;11.33;;;8.73;;
1479;SDS011;732;51.698;4.886;2024-02-15T10:30:42;13.33;;;8.03;;
1479;SDS011;732;51.698;4.886;2024-02-15T10:33:17;11.00;;;7.37;;
1479;SDS011;732;51.698;4.886;2024-02-15T10:35:48;16.40;;;8.10;;
1479;SDS011;732;51.698;4.886;2024-02-15T10:38:16;10.53;;;6.97;;
1479;SDS011;732;51.698;4.886;2024-02-15T10:40:45;13.43;;;7.10;;
1479;SDS011;732;51.698;4.886;2024-02-15T10:43:17;12.77;;;7.20;;
1479;SDS011;732;51.698;4.886;2024-02-15T10:45:46;11.23;;;7.60;;
1479;SDS011;732;51.698;4.886;2024-02-15T10:48:17;7.63;;;5.07;;
1479;SDS011;732;51.698;4.886;2024-02-15T10:50:46;8.70;;;6.40;;
1479;SDS011;732;51.698;4.886;2024-02-15T10:53:21;11.23;;;6.40;;
1479;SDS011;732;51.698;4.886;2024-02-15T10:55:57;11.83;;;6.57;;
1479;SDS011;732;51.698;4.886;2024-02-15T10:58:40;8.97;;;5.63;;
1479;SDS011;732;51.698;4.886;2024-02-15T11:01:17;10.03;;;5.80;;
1479;SDS011;732;51.698;4.886;2024-02-15T11:03:50;9.87;;;5.90;;
1479;SDS011;732;51.698;4.886;2024-02-15T11:06:26;7.93;;;4.93;;
1479;SDS011;732;51.698;4.886;2024-02-15T11:08:56;12.67;;;5.67;;
1479;SDS011;732;51.698;4.886;2024-02-15T11:11:26;9.87;;;4.90;;
1479;SDS011;732;51.698;4.886;2024-02-15T11:16:55;9.60;;;4.50;;
1479;SDS011;732;51.698;4.886;2024-02-15T11:19:40;9.03;;;4.97;;
1479;SDS011;732;51.698;4.886;2024-02-15T11:22:13;10.43;;;5.03;;
1479;SDS011;732;51.698;4.886;2024-02-15T11:24:46;6.40;;;4.50;;
1479;SDS011;732;51.698;4.886;2024-02-15T11:27:25;13.10;;;5.47;;
1479;SDS011;732;51.698;4.886;2024-02-15T11:29:57;10.30;;;5.37;;
1479;SDS011;732;51.698;4.886;2024-02-15T11:32:34;12.90;;;5.37;;
1479;SDS011;732;51.698;4.886;2024-02-15T11:35:12;9.00;;;4.83;;
1479;SDS011;732;51.698;4.886;2024-02-15T11:37:49;9.17;;;4.40;;
1479;SDS011;732;51.698;4.886;2024-02-15T11:40:23;7.50;;;4.50;;
1479;SDS011;732;51.698;4.886;2024-02-15T11:42:53;8.67;;;4.47;;
1479;SDS011;732;51.698;4.886;2024-02-15T11:45:27;11.37;;;4.53;;
1479;SDS011;732;51.698;4.886;2024-02-15T11:48:00;10.63;;;4.90;;
1479;SDS011;732;51.698;4.886;2024-02-15T11:50:32;8.67;;;4.70;;
1479;SDS011;732;51.698;4.886;2024-02-15T11:53:03;6.93;;;3.83;;
1479;SDS011;732;51.698;4.886;2024-02-15T11:55:37;8.20;;;4.60;;
1479;SDS011;732;51.698;4.886;2024-02-15T11:58:08;10.57;;;4.67;;
1479;SDS011;732;51.698;4.886;2024-02-15T12:00:59;7.47;;;4.57;;
1479;SDS011;732;51.698;4.886;2024-02-15T12:03:46;9.10;;;5.03;;
1479;SDS011;732;51.698;4.886;2024-02-15T12:06:38;10.67;;;4.13;;
1479;SDS011;732;51.698;4.886;2024-02-15T12:09:25;9.37;;;3.97;;
1479;SDS011;732;51.698;4.886;2024-02-15T12:12:11;8.77;;;4.23;;
1479;SDS011;732;51.698;4.886;2024-02-15T12:14:59;7.17;;;3.00;;
1479;SDS011;732;51.698;4.886;2024-02-15T12:17:47;14.07;;;3.53;;
1479;SDS011;732;51.698;4.886;2024-02-15T12:20:34;8.30;;;3.77;;
1479;SDS011;732;51.698;4.886;2024-02-15T12:23:03;6.80;;;4.00;;
1479;SDS011;732;51.698;4.886;2024-02-15T12:25:34;12.60;;;3.33;;
1479;SDS011;732;51.698;4.886;2024-02-15T12:28:05;6.43;;;3.50;;
1479;SDS011;732;51.698;4.886;2024-02-15T12:30:36;9.37;;;3.90;;
1479;SDS011;732;51.698;4.886;2024-02-15T12:33:12;10.43;;;4.20;;
1479;SDS011;732;51.698;4.886;2024-02-15T12:35:47;4.70;;;3.10;;
1479;SDS011;732;51.698;4.886;2024-02-15T12:38:17;12.27;;;3.80;;
1479;SDS011;732;51.698;4.886;2024-02-15T12:40:45;6.63;;;3.20;;
1479;SDS011;732;51.698;4.886;2024-02-15T12:43:15;4.60;;;3.07;;
1479;SDS011;732;51.698;4.886;2024-02-15T12:45:43;5.30;;;3.30;;
1479;SDS011;732;51.698;4.886;2024-02-15T12:48:13;8.50;;;3.43;;
1479;SDS011;732;51.698;4.886;2024-02-15T12:50:45;7.50;;;3.53;;
1479;SDS011;732;51.698;4.886;2024-02-15T12:53:20;6.80;;;3.50;;
1479;SDS011;732;51.698;4.886;2024-02-15T12:55:53;8.77;;;3.03;;
1479;SDS011;732;51.698;4.886;2024-02-15T12:58:22;5.93;;;3.30;;
1479;SDS011;732;51.698;4.886;2024-02-15T13:00:54;9.10;;;3.50;;
1479;SDS011;732;51.698;4.886;2024-02-15T13:03:26;7.63;;;3.43;;
1479;SDS011;732;51.698;4.886;2024-02-15T13:05:55;8.13;;;2.97;;
1479;SDS011;732;51.698;4.886;2024-02-15T13:08:24;8.50;;;3.47;;
1479;SDS011;732;51.698;4.886;2024-02-15T13:10:53;7.37;;;3.20;;
1479;SDS011;732;51.698;4.886;2024-02-15T13:13:22;9.17;;;3.90;;
1479;SDS011;732;51.698;4.886;2024-02-15T13:15:51;5.47;;;2.93;;
1479;SDS011;732;51.698;4.886;2024-02-15T13:18:20;8.13;;;3.40;;
1479;SDS011;732;51.698;4.886;2024-02-15T13:20:50;6.87;;;3.30;;
1479;SDS011;732;51.698;4.886;2024-02-15T13:23:19;10.37;;;3.30;;
1479;SDS011;732;51.698;4.886;2024-02-15T13:25:51;9.27;;;3.90;;
1479;SDS011;732;51.698;4.886;2024-02-15T13:28:23;13.13;;;3.87;;
1479;SDS011;732;51.698;4.886;2024-02-15T13:30:52;9.47;;;3.03;;
1479;SDS011;732;51.698;4.886;2024-02-15T13:33:22;10.90;;;3.67;;
1479;SDS011;732;51.698;4.886;2024-02-15T13:35:54;10.60;;;3.30;;
1479;SDS011;732;51.698;4.886;2024-02-15T13:38:23;6.40;;;3.87;;
1479;SDS011;732;51.698;4.886;2024-02-15T13:40:53;5.83;;;2.87;;
1479;SDS011;732;51.698;4.886;2024-02-15T13:43:23;7.97;;;2.80;;
1479;SDS011;732;51.698;4.886;2024-02-15T13:45:51;11.83;;;3.13;;
1479;SDS011;732;51.698;4.886;2024-02-15T13:48:20;5.27;;;3.37;;
1479;SDS011;732;51.698;4.886;2024-02-15T13:50:51;7.30;;;3.33;;
1479;SDS011;732;51.698;4.886;2024-02-15T13:53:22;6.23;;;3.20;;
1479;SDS011;732;51.698;4.886;2024-02-15T13:55:52;7.10;;;3.43;;
1479;SDS011;732;51.698;4.886;2024-02-15T13:58:20;5.27;;;2.97;;
1479;SDS011;732;51.698;4.886;2024-02-15T14:00:49;6.40;;;2.43;;
1479;SDS011;732;51.698;4.886;2024-02-15T14:03:19;6.23;;;2.87;;
1479;SDS011;732;51.698;4.886;2024-02-15T14:05:48;5.30;;;2.87;;
1479;SDS011;732;51.698;4.886;2024-02-15T14:08:17;5.20;;;3.13;;
1479;SDS011;732;51.698;4.886;2024-02-15T14:10:48;6.30;;;3.97;;
1479;SDS011;732;51.698;4.886;2024-02-15T14:13:17;11.37;;;4.60;;
1479;SDS011;732;51.698;4.886;2024-02-15T14:15:49;5.97;;;4.03;;
1479;SDS011;732;51.698;4.886;2024-02-15T14:18:18;8.57;;;4.43;;
1479;SDS011;732;51.698;4.886;2024-02-15T14:20:46;12.57;;;4.90;;
1479;SDS011;732;51.698;4.886;2024-02-15T14:23:17;6.43;;;3.73;;
1479;SDS011;732;51.698;4.886;2024-02-15T14:25:45;7.37;;;4.43;;
1479;SDS011;732;51.698;4.886;2024-02-15T14:28:17;9.00;;;4.47;;
1479;SDS011;732;51.698;4.886;2024-02-15T14:30:46;8.37;;;4.63;;
1479;SDS011;732;51.698;4.886;2024-02-15T14:33:32;6.87;;;3.53;;
1479;SDS011;732;51.698;4.886;2024-02-15T14:36:02;6.70;;;3.63;;
1479;SDS011;732;51.698;4.886;2024-02-15T14:38:32;8.93;;;3.67;;
1479;SDS011;732;51.698;4.886;2024-02-15T14:41:02;6.23;;;3.60;;
1479;SDS011;732;51.698;4.886;2024-02-15T14:43:35;3.60;;;3.30;;
1479;SDS011;732;51.698;4.886;2024-02-15T14:46:04;8.47;;;3.87;;
1479;SDS011;732;51.698;4.886;2024-02-15T14:48:35;5.63;;;2.90;;
1479;SDS011;732;51.698;4.886;2024-02-15T14:51:07;6.83;;;3.17;;
1479;SDS011;732;51.698;4.886;2024-02-15T14:53:36;6.20;;;3.07;;
1479;SDS011;732;51.698;4.886;2024-02-15T14:56:05;7.10;;;2.73;;
1479;SDS011;732;51.698;4.886;2024-02-15T14:58:36;4.50;;;2.90;;
1479;SDS011;732;51.698;4.886;2024-02-15T15:01:04;8.03;;;2.90;;
1479;SDS011;732;51.698;4.886;2024-02-15T15:03:36;6.80;;;2.90;;
1479;SDS011;732;51.698;4.886;2024-02-15T15:06:06;6.50;;;3.13;;
1479;SDS011;732;51.698;4.886;2024-02-15T15:08:53;3.63;;;2.77;;
1479;SDS011;732;51.698;4.886;2024-02-15T15:11:42;6.40;;;3.03;;
1479;SDS011;732;51.698;4.886;2024-02-15T15:14:30;7.97;;;2.80;;
1479;SDS011;732;51.698;4.886;2024-02-15T15:16:59;6.97;;;2.43;;
1479;SDS011;732;51.698;4.886;2024-02-15T15:19:29;5.90;;;2.80;;
1479;SDS011;732;51.698;4.886;2024-02-15T15:21:58;7.10;;;3.00;;
1479;SDS011;732;51.698;4.886;2024-02-15T15:24:27;4.13;;;2.30;;
1479;SDS011;732;51.698;4.886;2024-02-15T15:26:56;4.90;;;2.33;;
1479;SDS011;732;51.698;4.886;2024-02-15T15:29:25;4.70;;;2.80;;
1479;SDS011;732;51.698;4.886;2024-02-15T15:31:56;5.83;;;2.50;;
1479;SDS011;732;51.698;4.886;2024-02-15T15:34:25;6.83;;;2.90;;
1479;SDS011;732;51.698;4.886;2024-02-15T15:36:53;4.87;;;2.10;;
1479;SDS011;732;51.698;4.886;2024-02-15T15:39:23;3.53;;;2.50;;